KCVO/CVO METAR and TAF weather

Enter ICAO airport designator
Station Type Date Time Source
KCVO METAR 2022/05/24 11:56 UTC NOAA

KCVO 241156Z AUTO 31005KT 10SM CLR 07/07 A3015 RMK AO2 SLP210 T00720067 10117 20072 56003


Station Type Date Time Source
KCVO Decoded METAR 2022/05/24 11:56 UTC NOAA

Corvallis, Corvallis Municipal Airport, OR, United States (KCVO) 44-30N 123-17W
May 24, 2022 - 07:56 AM EDT / 2022.05.24 1156 UTC
Wind: from the NW (310 degrees) at 6 MPH (5 KT):0
Visibility: 10 mile(s):0
Sky conditions: clear
Temperature: 45.0 F (7.2 C)
Dew Point: 44.1 F (6.7 C)
Relative Humidity: 96%
Pressure (altimeter): 30.15 in. Hg (1020 hPa)
Pressure tendency: 0.01 inches (0.3 hPa) lower than three hours ago
ob: KCVO 241156Z AUTO 31005KT 10SM CLR 07/07 A3015 RMK AO2 SLP210 T00720067 10117 20072 56003
cycle: 12

Station Type Date Time Source
KCVO TAF UTC NOAA

Error!

Example: see airport list